sensor_id;sensor_type;location;lat;lon;timestamp;temperature;humidity
420;DHT22;42600;54.408;13.016;2022-11-20T00:02:06;1.80;92.70
420;DHT22;42600;54.408;13.016;2022-11-20T00:04:33;1.80;92.70
420;DHT22;42600;54.408;13.016;2022-11-20T00:06:59;1.80;92.70
420;DHT22;42600;54.408;13.016;2022-11-20T00:09:26;1.80;92.70
420;DHT22;42600;54.408;13.016;2022-11-20T00:11:52;1.80;92.70
420;DHT22;42600;54.408;13.016;2022-11-20T00:14:19;1.70;92.70
420;DHT22;42600;54.408;13.016;2022-11-20T00:16:46;1.70;92.70
420;DHT22;42600;54.408;13.016;2022-11-20T00:19:14;1.70;92.70
420;DHT22;42600;54.408;13.016;2022-11-20T00:21:40;1.70;92.70
420;DHT22;42600;54.408;13.016;2022-11-20T00:24:08;1.80;92.70
420;DHT22;42600;54.408;13.016;2022-11-20T00:26:35;1.80;92.70
420;DHT22;42600;54.408;13.016;2022-11-20T00:29:02;1.70;92.70
420;DHT22;42600;54.408;13.016;2022-11-20T00:31:30;1.60;92.70
420;DHT22;42600;54.408;13.016;2022-11-20T00:33:58;1.60;92.70
420;DHT22;42600;54.408;13.016;2022-11-20T00:36:27;1.60;92.70
420;DHT22;42600;54.408;13.016;2022-11-20T00:38:56;1.60;92.70
420;DHT22;42600;54.408;13.016;2022-11-20T00:41:24;1.60;92.70
420;DHT22;42600;54.408;13.016;2022-11-20T00:43:51;1.60;92.70
420;DHT22;42600;54.408;13.016;2022-11-20T00:46:20;1.60;92.70
420;DHT22;42600;54.408;13.016;2022-11-20T00:48:47;1.60;92.70
420;DHT22;42600;54.408;13.016;2022-11-20T00:51:16;1.60;92.70
420;DHT22;42600;54.408;13.016;2022-11-20T00:53:44;1.60;92.70
420;DHT22;42600;54.408;13.016;2022-11-20T00:56:12;1.60;92.70
420;DHT22;42600;54.408;13.016;2022-11-20T00:58:41;1.60;92.70
420;DHT22;42600;54.408;13.016;2022-11-20T01:01:10;1.60;92.70
420;DHT22;42600;54.408;13.016;2022-11-20T01:03:38;1.60;92.70
420;DHT22;42600;54.408;13.016;2022-11-20T01:06:06;1.70;92.70
420;DHT22;42600;54.408;13.016;2022-11-20T01:08:34;1.70;92.70
420;DHT22;42600;54.408;13.016;2022-11-20T01:11:04;1.70;92.70
420;DHT22;42600;54.408;13.016;2022-11-20T01:13:32;1.70;92.70
420;DHT22;42600;54.408;13.016;2022-11-20T01:16:06;1.70;92.70
420;DHT22;42600;54.408;13.016;2022-11-20T01:18:33;1.60;92.70
420;DHT22;42600;54.408;13.016;2022-11-20T01:21:01;1.60;92.70
420;DHT22;42600;54.408;13.016;2022-11-20T01:23:31;1.60;92.70
420;DHT22;42600;54.408;13.016;2022-11-20T01:25:59;1.60;92.70
420;DHT22;42600;54.408;13.016;2022-11-20T01:28:28;1.60;92.70
420;DHT22;42600;54.408;13.016;2022-11-20T01:30:55;1.70;92.70
420;DHT22;42600;54.408;13.016;2022-11-20T01:33:21;1.70;92.70
420;DHT22;42600;54.408;13.016;2022-11-20T01:35:48;1.70;92.70
420;DHT22;42600;54.408;13.016;2022-11-20T01:38:15;1.60;92.70
420;DHT22;42600;54.408;13.016;2022-11-20T01:40:42;1.60;92.70
420;DHT22;42600;54.408;13.016;2022-11-20T01:43:14;1.60;92.70
420;DHT22;42600;54.408;13.016;2022-11-20T01:46:05;1.60;92.70
420;DHT22;42600;54.408;13.016;2022-11-20T01:48:36;1.50;92.70
420;DHT22;42600;54.408;13.016;2022-11-20T01:51:05;1.50;92.70
420;DHT22;42600;54.408;13.016;2022-11-20T01:53:34;1.60;92.70
420;DHT22;42600;54.408;13.016;2022-11-20T01:56:05;1.60;92.70
420;DHT22;42600;54.408;13.016;2022-11-20T01:58:38;1.60;92.70
420;DHT22;42600;54.408;13.016;2022-11-20T02:01:09;1.70;92.70
420;DHT22;42600;54.408;13.016;2022-11-20T02:03:35;1.70;92.70
420;DHT22;42600;54.408;13.016;2022-11-20T02:06:07;1.70;92.70
420;DHT22;42600;54.408;13.016;2022-11-20T02:08:35;1.70;92.70
420;DHT22;42600;54.408;13.016;2022-11-20T02:11:02;1.70;92.70
420;DHT22;42600;54.408;13.016;2022-11-20T02:13:29;1.70;92.70
420;DHT22;42600;54.408;13.016;2022-11-20T02:16:21;1.70;92.70
420;DHT22;42600;54.408;13.016;2022-11-20T02:18:49;1.80;92.70
420;DHT22;42600;54.408;13.016;2022-11-20T02:21:24;1.80;92.70
420;DHT22;42600;54.408;13.016;2022-11-20T02:23:59;1.80;92.70
420;DHT22;42600;54.408;13.016;2022-11-20T02:26:27;1.80;92.70
420;DHT22;42600;54.408;13.016;2022-11-20T02:28:54;1.80;92.70
420;DHT22;42600;54.408;13.016;2022-11-20T02:31:21;1.80;92.70
420;DHT22;42600;54.408;13.016;2022-11-20T02:33:54;1.80;92.70
420;DHT22;42600;54.408;13.016;2022-11-20T02:36:21;1.80;92.70
420;DHT22;42600;54.408;13.016;2022-11-20T02:38:49;1.70;92.70
420;DHT22;42600;54.408;13.016;2022-11-20T02:41:17;1.70;92.70
420;DHT22;42600;54.408;13.016;2022-11-20T02:43:43;1.60;92.70
420;DHT22;42600;54.408;13.016;2022-11-20T02:46:10;1.60;92.70
420;DHT22;42600;54.408;13.016;2022-11-20T02:48:37;1.60;92.70
420;DHT22;42600;54.408;13.016;2022-11-20T02:51:04;1.70;92.70
420;DHT22;42600;54.408;13.016;2022-11-20T02:53:30;1.60;92.70
420;DHT22;42600;54.408;13.016;2022-11-20T02:55:57;1.60;92.70
420;DHT22;42600;54.408;13.016;2022-11-20T02:58:25;1.50;92.70
420;DHT22;42600;54.408;13.016;2022-11-20T03:00:52;1.50;92.70
420;DHT22;42600;54.408;13.016;2022-11-20T03:03:18;1.50;92.70
420;DHT22;42600;54.408;13.016;2022-11-20T03:05:45;1.50;92.70
420;DHT22;42600;54.408;13.016;2022-11-20T03:08:11;1.50;92.70
420;DHT22;42600;54.408;13.016;2022-11-20T03:10:38;1.40;92.70
420;DHT22;42600;54.408;13.016;2022-11-20T03:13:04;1.40;92.70
420;DHT22;42600;54.408;13.016;2022-11-20T03:15:32;1.40;92.70
420;DHT22;42600;54.408;13.016;2022-11-20T03:17:59;1.40;92.70
420;DHT22;42600;54.408;13.016;2022-11-20T03:20:25;1.50;92.70
420;DHT22;42600;54.408;13.016;2022-11-20T03:22:53;1.50;92.70
420;DHT22;42600;54.408;13.016;2022-11-20T03:25:20;1.50;92.70
420;DHT22;42600;54.408;13.016;2022-11-20T03:27:47;1.50;92.70
420;DHT22;42600;54.408;13.016;2022-11-20T03:30:13;1.50;92.70
420;DHT22;42600;54.408;13.016;2022-11-20T03:32:42;1.50;92.70
420;DHT22;42600;54.408;13.016;2022-11-20T03:35:09;1.50;92.70
420;DHT22;42600;54.408;13.016;2022-11-20T03:37:35;1.50;92.70
420;DHT22;42600;54.408;13.016;2022-11-20T03:40:02;1.50;92.70
420;DHT22;42600;54.408;13.016;2022-11-20T03:42:29;1.50;92.70
420;DHT22;42600;54.408;13.016;2022-11-20T03:45:11;1.50;92.70
420;DHT22;42600;54.408;13.016;2022-11-20T03:47:38;1.40;92.70
420;DHT22;42600;54.408;13.016;2022-11-20T03:50:06;1.40;92.70
420;DHT22;42600;54.408;13.016;2022-11-20T03:52:33;1.40;92.70
420;DHT22;42600;54.408;13.016;2022-11-20T03:55:00;1.40;92.70
420;DHT22;42600;54.408;13.016;2022-11-20T03:57:26;1.40;92.70
420;DHT22;42600;54.408;13.016;2022-11-20T03:59:53;1.50;92.70
420;DHT22;42600;54.408;13.016;2022-11-20T04:02:19;1.50;92.70
420;DHT22;42600;54.408;13.016;2022-11-20T04:04:46;1.50;92.70
420;DHT22;42600;54.408;13.016;2022-11-20T04:07:14;1.40;92.70
420;DHT22;42600;54.408;13.016;2022-11-20T04:09:40;1.40;92.70
420;DHT22;42600;54.408;13.016;2022-11-20T04:12:07;1.40;92.70
420;DHT22;42600;54.408;13.016;2022-11-20T04:14:33;1.40;92.70
420;DHT22;42600;54.408;13.016;2022-11-20T04:17:00;1.40;92.70
420;DHT22;42600;54.408;13.016;2022-11-20T04:19:26;1.40;92.70
420;DHT22;42600;54.408;13.016;2022-11-20T04:21:53;1.40;92.70
420;DHT22;42600;54.408;13.016;2022-11-20T04:24:21;1.40;92.70
420;DHT22;42600;54.408;13.016;2022-11-20T04:26:47;1.40;92.70
420;DHT22;42600;54.408;13.016;2022-11-20T04:29:14;1.40;92.70
420;DHT22;42600;54.408;13.016;2022-11-20T04:31:40;1.40;92.70
420;DHT22;42600;54.408;13.016;2022-11-20T04:34:07;1.40;92.70
420;DHT22;42600;54.408;13.016;2022-11-20T04:36:34;1.40;92.70
420;DHT22;42600;54.408;13.016;2022-11-20T04:39:03;1.40;92.70
420;DHT22;42600;54.408;13.016;2022-11-20T04:41:33;1.40;92.70
420;DHT22;42600;54.408;13.016;2022-11-20T04:44:01;1.40;92.70
420;DHT22;42600;54.408;13.016;2022-11-20T04:46:29;1.40;92.70
420;DHT22;42600;54.408;13.016;2022-11-20T04:48:57;1.50;92.70
420;DHT22;42600;54.408;13.016;2022-11-20T04:51:23;1.50;92.70
420;DHT22;42600;54.408;13.016;2022-11-20T04:53:50;1.50;92.70
420;DHT22;42600;54.408;13.016;2022-11-20T04:56:16;1.50;92.70
420;DHT22;42600;54.408;13.016;2022-11-20T04:58:44;1.50;92.70
420;DHT22;42600;54.408;13.016;2022-11-20T05:01:12;1.50;92.70
420;DHT22;42600;54.408;13.016;2022-11-20T05:03:39;1.50;92.70
420;DHT22;42600;54.408;13.016;2022-11-20T05:06:07;1.50;92.70
420;DHT22;42600;54.408;13.016;2022-11-20T05:08:33;1.50;92.70
420;DHT22;42600;54.408;13.016;2022-11-20T05:11:01;1.50;92.70
420;DHT22;42600;54.408;13.016;2022-11-20T05:13:27;1.50;92.70
420;DHT22;42600;54.408;13.016;2022-11-20T05:15:55;1.50;92.70
420;DHT22;42600;54.408;13.016;2022-11-20T05:18:26;1.50;92.70
420;DHT22;42600;54.408;13.016;2022-11-20T05:20:55;1.50;92.70
420;DHT22;42600;54.408;13.016;2022-11-20T05:23:22;1.40;92.70
420;DHT22;42600;54.408;13.016;2022-11-20T05:25:51;1.40;92.70
420;DHT22;42600;54.408;13.016;2022-11-20T05:28:18;1.40;92.70
420;DHT22;42600;54.408;13.016;2022-11-20T05:30:45;1.40;92.70
420;DHT22;42600;54.408;13.016;2022-11-20T05:33:12;1.40;92.70
420;DHT22;42600;54.408;13.016;2022-11-20T05:35:39;1.40;92.70
420;DHT22;42600;54.408;13.016;2022-11-20T05:38:06;1.40;92.70
420;DHT22;42600;54.408;13.016;2022-11-20T05:40:32;1.50;92.70
420;DHT22;42600;54.408;13.016;2022-11-20T05:42:59;1.40;92.70
420;DHT22;42600;54.408;13.016;2022-11-20T05:45:26;1.40;92.70
420;DHT22;42600;54.408;13.016;2022-11-20T05:47:52;1.50;92.70
420;DHT22;42600;54.408;13.016;2022-11-20T05:50:20;1.40;92.70
420;DHT22;42600;54.408;13.016;2022-11-20T05:52:47;1.40;92.70
420;DHT22;42600;54.408;13.016;2022-11-20T05:55:13;1.40;92.70
420;DHT22;42600;54.408;13.016;2022-11-20T05:57:40;1.40;92.70
420;DHT22;42600;54.408;13.016;2022-11-20T06:00:08;1.40;92.70
420;DHT22;42600;54.408;13.016;2022-11-20T06:02:35;1.40;92.70
420;DHT22;42600;54.408;13.016;2022-11-20T06:05:02;1.40;92.70
420;DHT22;42600;54.408;13.016;2022-11-20T06:07:30;1.40;92.70
420;DHT22;42600;54.408;13.016;2022-11-20T06:09:56;1.40;92.70
420;DHT22;42600;54.408;13.016;2022-11-20T06:12:23;1.50;92.70
420;DHT22;42600;54.408;13.016;2022-11-20T06:14:49;1.50;92.70
420;DHT22;42600;54.408;13.016;2022-11-20T06:17:16;1.50;92.70
420;DHT22;42600;54.408;13.016;2022-11-20T06:19:42;1.50;92.70
420;DHT22;42600;54.408;13.016;2022-11-20T06:22:09;1.40;92.70
420;DHT22;42600;54.408;13.016;2022-11-20T06:24:37;1.40;92.70
420;DHT22;42600;54.408;13.016;2022-11-20T06:27:03;1.50;92.70
420;DHT22;42600;54.408;13.016;2022-11-20T06:29:30;1.50;92.70
420;DHT22;42600;54.408;13.016;2022-11-20T06:31:56;1.50;92.70
420;DHT22;42600;54.408;13.016;2022-11-20T06:34:23;1.50;92.70
420;DHT22;42600;54.408;13.016;2022-11-20T06:36:49;1.40;92.70
420;DHT22;42600;54.408;13.016;2022-11-20T06:39:16;1.50;92.70
420;DHT22;42600;54.408;13.016;2022-11-20T06:41:44;1.40;92.70
420;DHT22;42600;54.408;13.016;2022-11-20T06:44:10;1.40;92.70
420;DHT22;42600;54.408;13.016;2022-11-20T06:46:37;1.40;92.70
420;DHT22;42600;54.408;13.016;2022-11-20T06:49:04;1.40;92.70
420;DHT22;42600;54.408;13.016;2022-11-20T06:51:31;1.40;92.70
420;DHT22;42600;54.408;13.016;2022-11-20T06:53:57;1.40;92.70
420;DHT22;42600;54.408;13.016;2022-11-20T06:56:26;1.40;92.70
420;DHT22;42600;54.408;13.016;2022-11-20T06:58:54;1.40;92.70
420;DHT22;42600;54.408;13.016;2022-11-20T07:01:21;1.30;92.70
420;DHT22;42600;54.408;13.016;2022-11-20T07:03:49;1.30;92.70
420;DHT22;42600;54.408;13.016;2022-11-20T07:06:16;1.30;92.70
420;DHT22;42600;54.408;13.016;2022-11-20T07:08:42;1.30;92.70
420;DHT22;42600;54.408;13.016;2022-11-20T07:11:12;1.30;92.70
420;DHT22;42600;54.408;13.016;2022-11-20T07:13:38;1.30;92.70
420;DHT22;42600;54.408;13.016;2022-11-20T07:16:07;1.30;92.70
420;DHT22;42600;54.408;13.016;2022-11-20T07:18:34;1.30;92.70
420;DHT22;42600;54.408;13.016;2022-11-20T07:21:02;1.30;92.70
420;DHT22;42600;54.408;13.016;2022-11-20T07:23:28;1.30;92.70
420;DHT22;42600;54.408;13.016;2022-11-20T07:25:55;1.30;92.70
420;DHT22;42600;54.408;13.016;2022-11-20T07:28:22;1.30;92.70
420;DHT22;42600;54.408;13.016;2022-11-20T07:30:52;1.30;92.70
420;DHT22;42600;54.408;13.016;2022-11-20T07:33:20;1.30;92.70
420;DHT22;42600;54.408;13.016;2022-11-20T07:35:47;1.40;92.70
420;DHT22;42600;54.408;13.016;2022-11-20T07:38:13;1.50;92.70
420;DHT22;42600;54.408;13.016;2022-11-20T07:40:40;1.50;92.70
420;DHT22;42600;54.408;13.016;2022-11-20T07:43:06;1.60;92.70
420;DHT22;42600;54.408;13.016;2022-11-20T07:45:33;1.70;92.70
420;DHT22;42600;54.408;13.016;2022-11-20T07:47:59;1.70;92.70
420;DHT22;42600;54.408;13.016;2022-11-20T07:50:27;1.80;92.70
420;DHT22;42600;54.408;13.016;2022-11-20T07:53:00;1.80;92.70
420;DHT22;42600;54.408;13.016;2022-11-20T07:55:27;1.90;92.70
420;DHT22;42600;54.408;13.016;2022-11-20T07:57:54;1.90;92.70
420;DHT22;42600;54.408;13.016;2022-11-20T08:00:21;1.90;92.70
420;DHT22;42600;54.408;13.016;2022-11-20T08:02:48;1.90;92.70
420;DHT22;42600;54.408;13.016;2022-11-20T08:05:14;1.80;92.70
420;DHT22;42600;54.408;13.016;2022-11-20T08:07:43;1.80;92.70
420;DHT22;42600;54.408;13.016;2022-11-20T08:10:12;1.80;92.70
420;DHT22;42600;54.408;13.016;2022-11-20T08:12:44;1.80;92.70
420;DHT22;42600;54.408;13.016;2022-11-20T08:15:28;1.80;92.70
420;DHT22;42600;54.408;13.016;2022-11-20T08:18:00;1.80;92.70
420;DHT22;42600;54.408;13.016;2022-11-20T08:20:26;1.70;92.70
420;DHT22;42600;54.408;13.016;2022-11-20T08:22:59;1.70;92.70
420;DHT22;42600;54.408;13.016;2022-11-20T08:25:26;1.70;92.70
420;DHT22;42600;54.408;13.016;2022-11-20T08:27:52;1.70;92.70
420;DHT22;42600;54.408;13.016;2022-11-20T08:30:19;1.70;92.70
420;DHT22;42600;54.408;13.016;2022-11-20T08:32:45;1.70;92.70
420;DHT22;42600;54.408;13.016;2022-11-20T08:35:12;1.70;92.70
420;DHT22;42600;54.408;13.016;2022-11-20T08:37:39;1.70;92.70
420;DHT22;42600;54.408;13.016;2022-11-20T08:40:09;1.80;92.70
420;DHT22;42600;54.408;13.016;2022-11-20T08:42:36;1.80;92.70
420;DHT22;42600;54.408;13.016;2022-11-20T08:45:03;1.80;92.70
420;DHT22;42600;54.408;13.016;2022-11-20T08:47:31;1.70;92.70
420;DHT22;42600;54.408;13.016;2022-11-20T08:49:57;1.70;92.70
420;DHT22;42600;54.408;13.016;2022-11-20T08:52:24;1.80;92.70
420;DHT22;42600;54.408;13.016;2022-11-20T08:54:50;1.80;92.70
420;DHT22;42600;54.408;13.016;2022-11-20T08:57:18;1.80;92.70
420;DHT22;42600;54.408;13.016;2022-11-20T08:59:45;1.80;92.70
420;DHT22;42600;54.408;13.016;2022-11-20T09:02:11;1.80;92.70
420;DHT22;42600;54.408;13.016;2022-11-20T09:04:38;1.90;92.70
420;DHT22;42600;54.408;13.016;2022-11-20T09:07:04;1.90;92.70
420;DHT22;42600;54.408;13.016;2022-11-20T09:09:31;1.90;92.70
420;DHT22;42600;54.408;13.016;2022-11-20T09:11:58;2.00;92.70
420;DHT22;42600;54.408;13.016;2022-11-20T09:14:26;2.00;92.70
420;DHT22;42600;54.408;13.016;2022-11-20T09:16:55;2.00;92.70
420;DHT22;42600;54.408;13.016;2022-11-20T09:19:23;2.00;92.70
420;DHT22;42600;54.408;13.016;2022-11-20T09:21:50;2.00;92.70
420;DHT22;42600;54.408;13.016;2022-11-20T09:24:17;2.00;92.70
420;DHT22;42600;54.408;13.016;2022-11-20T09:26:44;2.10;92.70
420;DHT22;42600;54.408;13.016;2022-11-20T09:29:10;2.20;92.70
420;DHT22;42600;54.408;13.016;2022-11-20T09:31:38;2.20;92.70
420;DHT22;42600;54.408;13.016;2022-11-20T09:34:05;2.30;92.70
420;DHT22;42600;54.408;13.016;2022-11-20T09:36:31;2.30;92.70
420;DHT22;42600;54.408;13.016;2022-11-20T09:38:58;2.30;92.70
420;DHT22;42600;54.408;13.016;2022-11-20T09:41:38;2.40;92.70
420;DHT22;42600;54.408;13.016;2022-11-20T09:44:24;2.40;92.70
420;DHT22;42600;54.408;13.016;2022-11-20T09:46:59;2.40;92.70
420;DHT22;42600;54.408;13.016;2022-11-20T09:49:32;2.40;92.70
420;DHT22;42600;54.408;13.016;2022-11-20T09:52:10;2.50;92.70
420;DHT22;42600;54.408;13.016;2022-11-20T09:54:41;2.50;92.70
420;DHT22;42600;54.408;13.016;2022-11-20T09:57:10;2.50;92.70
420;DHT22;42600;54.408;13.016;2022-11-20T09:59:40;2.50;92.70
420;DHT22;42600;54.408;13.016;2022-11-20T10:02:16;2.50;92.70
420;DHT22;42600;54.408;13.016;2022-11-20T10:04:46;2.50;92.70
420;DHT22;42600;54.408;13.016;2022-11-20T10:07:17;2.50;92.70
420;DHT22;42600;54.408;13.016;2022-11-20T10:09:51;2.60;92.70
420;DHT22;42600;54.408;13.016;2022-11-20T10:12:23;2.60;92.70
420;DHT22;42600;54.408;13.016;2022-11-20T10:14:58;2.60;92.70
420;DHT22;42600;54.408;13.016;2022-11-20T10:17:41;2.60;92.70
420;DHT22;42600;54.408;13.016;2022-11-20T10:20:16;2.60;92.70
420;DHT22;42600;54.408;13.016;2022-11-20T10:22:57;2.60;92.70
420;DHT22;42600;54.408;13.016;2022-11-20T10:25:37;2.60;92.70
420;DHT22;42600;54.408;13.016;2022-11-20T10:28:15;2.60;92.70
420;DHT22;42600;54.408;13.016;2022-11-20T10:30:46;2.60;92.70
420;DHT22;42600;54.408;13.016;2022-11-20T10:33:21;2.60;92.70
420;DHT22;42600;54.408;13.016;2022-11-20T10:35:52;2.70;92.70
420;DHT22;42600;54.408;13.016;2022-11-20T10:38:23;2.70;92.70
420;DHT22;42600;54.408;13.016;2022-11-20T10:40:52;2.70;92.60
420;DHT22;42600;54.408;13.016;2022-11-20T10:43:40;2.70;91.20
420;DHT22;42600;54.408;13.016;2022-11-20T10:46:12;2.70;91.60
420;DHT22;42600;54.408;13.016;2022-11-20T10:48:43;2.70;91.10
420;DHT22;42600;54.408;13.016;2022-11-20T10:51:21;2.70;91.70
420;DHT22;42600;54.408;13.016;2022-11-20T10:54:09;2.70;90.70
420;DHT22;42600;54.408;13.016;2022-11-20T10:56:40;2.70;89.50
420;DHT22;42600;54.408;13.016;2022-11-20T10:59:27;2.60;89.80
420;DHT22;42600;54.408;13.016;2022-11-20T11:01:56;2.70;90.30
420;DHT22;42600;54.408;13.016;2022-11-20T11:04:33;2.70;88.60
420;DHT22;42600;54.408;13.016;2022-11-20T11:07:09;2.70;89.70
420;DHT22;42600;54.408;13.016;2022-11-20T11:09:39;2.70;89.10
420;DHT22;42600;54.408;13.016;2022-11-20T11:12:08;2.70;87.90
420;DHT22;42600;54.408;13.016;2022-11-20T11:14:43;2.70;88.70
420;DHT22;42600;54.408;13.016;2022-11-20T11:17:21;2.80;88.70
420;DHT22;42600;54.408;13.016;2022-11-20T11:20:02;2.80;88.40
420;DHT22;42600;54.408;13.016;2022-11-20T11:22:30;2.70;88.20
420;DHT22;42600;54.408;13.016;2022-11-20T11:24:57;2.70;88.30
420;DHT22;42600;54.408;13.016;2022-11-20T11:27:24;2.80;87.90
420;DHT22;42600;54.408;13.016;2022-11-20T11:30:02;2.80;88.00
420;DHT22;42600;54.408;13.016;2022-11-20T11:32:30;2.80;87.90
420;DHT22;42600;54.408;13.016;2022-11-20T11:35:03;2.80;88.00
420;DHT22;42600;54.408;13.016;2022-11-20T11:37:33;2.70;87.60
420;DHT22;42600;54.408;13.016;2022-11-20T11:40:01;2.70;87.80
420;DHT22;42600;54.408;13.016;2022-11-20T11:42:28;2.70;87.30
420;DHT22;42600;54.408;13.016;2022-11-20T11:44:57;2.70;86.50
420;DHT22;42600;54.408;13.016;2022-11-20T11:47:35;2.70;87.00
420;DHT22;42600;54.408;13.016;2022-11-20T11:50:15;2.80;87.90
420;DHT22;42600;54.408;13.016;2022-11-20T11:52:46;2.80;87.70
420;DHT22;42600;54.408;13.016;2022-11-20T11:55:17;2.70;86.70
420;DHT22;42600;54.408;13.016;2022-11-20T11:57:49;2.80;87.40
420;DHT22;42600;54.408;13.016;2022-11-20T12:00:17;2.80;87.50
420;DHT22;42600;54.408;13.016;2022-11-20T12:02:57;2.80;86.60
420;DHT22;42600;54.408;13.016;2022-11-20T12:05:29;2.80;86.30
420;DHT22;42600;54.408;13.016;2022-11-20T12:08:01;2.80;86.50
420;DHT22;42600;54.408;13.016;2022-11-20T12:10:40;2.70;86.50
420;DHT22;42600;54.408;13.016;2022-11-20T12:13:19;2.70;86.50
420;DHT22;42600;54.408;13.016;2022-11-20T12:15:47;2.80;87.20
420;DHT22;42600;54.408;13.016;2022-11-20T12:18:16;2.80;87.60
420;DHT22;42600;54.408;13.016;2022-11-20T12:20:50;2.70;85.50
420;DHT22;42600;54.408;13.016;2022-11-20T12:23:24;2.70;87.40
420;DHT22;42600;54.408;13.016;2022-11-20T12:25:56;2.80;88.00
420;DHT22;42600;54.408;13.016;2022-11-20T12:28:39;2.80;87.80
420;DHT22;42600;54.408;13.016;2022-11-20T12:31:27;2.80;87.80
420;DHT22;42600;54.408;13.016;2022-11-20T12:34:18;2.80;87.40
420;DHT22;42600;54.408;13.016;2022-11-20T12:36:53;2.90;89.70
420;DHT22;42600;54.408;13.016;2022-11-20T12:39:34;2.80;85.90
420;DHT22;42600;54.408;13.016;2022-11-20T12:42:26;2.80;86.10
420;DHT22;42600;54.408;13.016;2022-11-20T12:45:34;3.10;92.30
420;DHT22;42600;54.408;13.016;2022-11-20T12:48:22;3.60;92.70
420;DHT22;42600;54.408;13.016;2022-11-20T12:51:02;3.30;89.30
420;DHT22;42600;54.408;13.016;2022-11-20T12:53:40;3.50;92.70
420;DHT22;42600;54.408;13.016;2022-11-20T12:56:18;3.60;92.70
420;DHT22;42600;54.408;13.016;2022-11-20T12:58:53;3.30;89.40
420;DHT22;42600;54.408;13.016;2022-11-20T13:01:32;3.20;88.10
420;DHT22;42600;54.408;13.016;2022-11-20T13:04:19;3.70;92.70
420;DHT22;42600;54.408;13.016;2022-11-20T13:06:50;3.80;92.70
420;DHT22;42600;54.408;13.016;2022-11-20T13:09:19;4.00;92.70
420;DHT22;42600;54.408;13.016;2022-11-20T13:11:51;3.80;92.70
420;DHT22;42600;54.408;13.016;2022-11-20T13:14:29;4.10;92.70
420;DHT22;42600;54.408;13.016;2022-11-20T13:17:00;4.30;92.70
420;DHT22;42600;54.408;13.016;2022-11-20T13:19:32;4.40;92.70
420;DHT22;42600;54.408;13.016;2022-11-20T13:21:59;4.50;92.70
420;DHT22;42600;54.408;13.016;2022-11-20T13:24:29;4.50;92.70
420;DHT22;42600;54.408;13.016;2022-11-20T13:27:18;4.40;92.70
420;DHT22;42600;54.408;13.016;2022-11-20T13:29:47;4.30;92.70
420;DHT22;42600;54.408;13.016;2022-11-20T13:32:24;4.10;92.10
420;DHT22;42600;54.408;13.016;2022-11-20T13:34:52;3.90;87.30
420;DHT22;42600;54.408;13.016;2022-11-20T13:37:31;3.70;86.40
420;DHT22;42600;54.408;13.016;2022-11-20T13:40:21;3.60;87.20
420;DHT22;42600;54.408;13.016;2022-11-20T13:42:55;3.50;87.60
420;DHT22;42600;54.408;13.016;2022-11-20T13:45:26;3.70;91.40
420;DHT22;42600;54.408;13.016;2022-11-20T13:47:54;3.60;89.30
420;DHT22;42600;54.408;13.016;2022-11-20T13:50:32;3.60;91.40
420;DHT22;42600;54.408;13.016;2022-11-20T13:53:12;3.50;88.00
420;DHT22;42600;54.408;13.016;2022-11-20T13:55:50;3.60;90.50
420;DHT22;42600;54.408;13.016;2022-11-20T13:58:32;3.70;92.50
420;DHT22;42600;54.408;13.016;2022-11-20T14:01:09;3.70;92.70
420;DHT22;42600;54.408;13.016;2022-11-20T14:03:36;4.00;92.70
420;DHT22;42600;54.408;13.016;2022-11-20T14:06:10;4.10;92.70
420;DHT22;42600;54.408;13.016;2022-11-20T14:08:41;4.10;92.70
420;DHT22;42600;54.408;13.016;2022-11-20T14:11:16;3.90;92.50
420;DHT22;42600;54.408;13.016;2022-11-20T14:13:57;3.80;92.70
420;DHT22;42600;54.408;13.016;2022-11-20T14:16:26;3.70;90.50
420;DHT22;42600;54.408;13.016;2022-11-20T14:18:53;3.40;88.00
420;DHT22;42600;54.408;13.016;2022-11-20T14:21:22;3.40;89.20
420;DHT22;42600;54.408;13.016;2022-11-20T14:23:52;3.40;90.30
420;DHT22;42600;54.408;13.016;2022-11-20T14:26:20;3.50;92.10
420;DHT22;42600;54.408;13.016;2022-11-20T14:28:49;3.60;92.70
420;DHT22;42600;54.408;13.016;2022-11-20T14:31:22;3.40;89.70
420;DHT22;42600;54.408;13.016;2022-11-20T14:33:51;3.40;91.90
420;DHT22;42600;54.408;13.016;2022-11-20T14:36:20;3.20;87.80
420;DHT22;42600;54.408;13.016;2022-11-20T14:38:47;3.00;86.80
420;DHT22;42600;54.408;13.016;2022-11-20T14:41:18;3.00;87.00
420;DHT22;42600;54.408;13.016;2022-11-20T14:43:53;2.90;87.40
420;DHT22;42600;54.408;13.016;2022-11-20T14:46:20;2.80;87.40
420;DHT22;42600;54.408;13.016;2022-11-20T14:48:50;2.70;87.70
420;DHT22;42600;54.408;13.016;2022-11-20T14:51:27;2.80;90.40
420;DHT22;42600;54.408;13.016;2022-11-20T14:53:54;3.10;92.70
420;DHT22;42600;54.408;13.016;2022-11-20T14:56:22;3.30;92.70
420;DHT22;42600;54.408;13.016;2022-11-20T14:58:56;3.10;92.70
420;DHT22;42600;54.408;13.016;2022-11-20T15:01:26;2.90;92.70
420;DHT22;42600;54.408;13.016;2022-11-20T15:03:59;2.90;92.70
420;DHT22;42600;54.408;13.016;2022-11-20T15:06:26;2.70;92.70
420;DHT22;42600;54.408;13.016;2022-11-20T15:08:53;2.60;92.50
420;DHT22;42600;54.408;13.016;2022-11-20T15:11:25;2.60;92.70
420;DHT22;42600;54.408;13.016;2022-11-20T15:13:53;2.70;92.70
420;DHT22;42600;54.408;13.016;2022-11-20T15:16:23;3.10;92.70
420;DHT22;42600;54.408;13.016;2022-11-20T15:18:50;2.80;92.70
420;DHT22;42600;54.408;13.016;2022-11-20T15:21:19;2.80;92.70
420;DHT22;42600;54.408;13.016;2022-11-20T15:23:47;3.20;92.70
420;DHT22;42600;54.408;13.016;2022-11-20T15:26:15;3.10;92.70
420;DHT22;42600;54.408;13.016;2022-11-20T15:28:45;3.10;92.70
420;DHT22;42600;54.408;13.016;2022-11-20T15:31:14;2.90;92.70
420;DHT22;42600;54.408;13.016;2022-11-20T15:33:42;2.90;92.70
420;DHT22;42600;54.408;13.016;2022-11-20T15:36:09;3.00;92.70
420;DHT22;42600;54.408;13.016;2022-11-20T15:38:36;3.30;92.70
420;DHT22;42600;54.408;13.016;2022-11-20T15:41:03;3.20;92.70
420;DHT22;42600;54.408;13.016;2022-11-20T15:43:29;3.10;92.70
420;DHT22;42600;54.408;13.016;2022-11-20T15:45:59;3.30;92.70
420;DHT22;42600;54.408;13.016;2022-11-20T15:48:27;3.20;92.70
420;DHT22;42600;54.408;13.016;2022-11-20T15:50:58;2.80;92.70
420;DHT22;42600;54.408;13.016;2022-11-20T15:53:25;3.40;92.70
420;DHT22;42600;54.408;13.016;2022-11-20T15:55:52;3.50;92.70
420;DHT22;42600;54.408;13.016;2022-11-20T15:58:19;3.40;92.70
420;DHT22;42600;54.408;13.016;2022-11-20T16:00:46;3.10;92.70
420;DHT22;42600;54.408;13.016;2022-11-20T16:03:13;3.30;92.70
420;DHT22;42600;54.408;13.016;2022-11-20T16:05:40;3.20;92.70
420;DHT22;42600;54.408;13.016;2022-11-20T16:08:08;3.20;92.70
420;DHT22;42600;54.408;13.016;2022-11-20T16:10:34;3.20;92.70
420;DHT22;42600;54.408;13.016;2022-11-20T16:13:01;3.00;92.70
420;DHT22;42600;54.408;13.016;2022-11-20T16:15:50;2.70;92.70
420;DHT22;42600;54.408;13.016;2022-11-20T16:18:19;2.40;92.70
420;DHT22;42600;54.408;13.016;2022-11-20T16:20:49;2.30;92.70